Terminal Aerodrome Forecast
Issued by NWS

Home | Current Version | Previous Version | Graphics & Text | Print | Product List | Glossary On
Versions: 1 2 3 4 5 6 7 8 9 10 11 12 13 14 15 16
000
FTUS45 KGGW 211720
TAFSDY
TAF
KSDY 211720Z 2118/2218 23008KT P6SM VCSH SCT040 BKN100
     FM211900 VRB06KT 6SM -RA OVC050
     FM220000 31009KT 5SM -SN OVC025
     FM220600 35005KT P6SM -RASNPL BKN010 OVC011
     FM220800 36005KT 6SM -SN SCT008 OVC009
     FM221200 36009KT 2SM -SN SCT003 OVC004=

USA.gov is the U.S. government's official web portal to all federal, state and local government web resources and services.